Time;durP1;ratioP1;P1;durP2;ratioP2;P2;SDS_P1;SDS_P2;PMS_P1;PMS_P2;Temp;Humidity;BMP_temperature;BMP_pressure;BME280_temperature;BME280_humidity;BME280_pressure;Samples;Min_cycle;Max_cycle;Signal;HPM_P1;HPM_P2
2021/05/23 00:00:13;;;;;;;0.40;0.40;;;12.10;99.90;;;;;;4999878;28;20140;-75
2021/05/23 00:02:39;;;;;;;0.75;0.52;;;12.10;99.90;;;;;;4998184;28;20093;-76
2021/05/23 00:05:08;;;;;;;1.30;0.55;;;12.10;99.90;;;;;;5019826;28;20079;-74
2021/05/23 00:07:38;;;;;;;1.85;0.75;;;11.90;99.90;;;;;;5025243;28;20148;-76
2021/05/23 00:10:07;;;;;;;4.07;0.80;;;11.90;99.90;;;;;;5017370;28;20071;-75
2021/05/23 00:12:32;;;;;;;1.17;0.68;;;11.90;99.90;;;;;;5014461;28;20070;-76
2021/05/23 00:14:58;;;;;;;1.98;0.40;;;11.90;99.90;;;;;;5015366;28;20169;-73
2021/05/23 00:17:24;;;;;;;2.00;0.70;;;12.00;99.90;;;;;;5009509;28;20082;-76
2021/05/23 00:19:49;;;;;;;1.35;0.50;;;11.90;99.90;;;;;;5027758;28;20127;-76
2021/05/23 00:22:15;;;;;;;1.27;0.68;;;11.90;99.90;;;;;;5005272;28;20074;-76
2021/05/23 00:24:41;;;;;;;1.60;0.80;;;11.90;99.90;;;;;;5009058;28;20114;-76
2021/05/23 00:27:06;;;;;;;1.00;0.45;;;11.90;99.90;;;;;;5024321;28;20097;-74
2021/05/23 00:29:32;;;;;;;0.55;0.40;;;11.80;99.90;;;;;;5012783;28;20593;-76
2021/05/23 00:31:59;;;;;;;0.65;0.40;;;11.90;99.90;;;;;;5011802;28;20078;-75
2021/05/23 00:34:25;;;;;;;2.35;0.70;;;11.90;99.90;;;;;;5008506;28;20075;-75
2021/05/23 00:36:51;;;;;;;2.33;0.63;;;11.90;99.90;;;;;;5021351;28;20566;-75
2021/05/23 00:39:17;;;;;;;1.20;0.52;;;11.90;99.90;;;;;;5012436;28;20097;-75
2021/05/23 00:41:42;;;;;;;0.80;0.60;;;12.00;99.90;;;;;;5020255;28;20078;-75
2021/05/23 00:44:08;;;;;;;2.20;0.40;;;11.80;99.90;;;;;;5008629;28;20087;-75
2021/05/23 00:46:33;;;;;;;0.77;0.57;;;11.80;99.90;;;;;;5007275;28;20086;-75
2021/05/23 00:48:59;;;;;;;1.08;0.60;;;11.80;99.90;;;;;;5015670;28;20114;-75
2021/05/23 00:51:25;;;;;;;4.00;0.80;;;11.80;99.90;;;;;;5008210;28;20185;-75
2021/05/23 00:53:50;;;;;;;1.08;0.50;;;11.80;99.90;;;;;;4996454;28;20070;-75
2021/05/23 00:56:18;;;;;;;1.25;0.52;;;11.80;99.90;;;;;;5006075;28;20086;-75
2021/05/23 00:58:45;;;;;;;1.08;0.45;;;11.80;99.90;;;;;;4997510;28;20117;-74
2021/05/23 01:01:45;;;;;;;0.77;0.52;;;11.80;99.90;;;;;;5027801;28;20453;-76
2021/05/23 01:04:11;;;;;;;0.75;0.43;;;11.80;99.90;;;;;;5007437;28;21149;-75
2021/05/23 01:06:37;;;;;;;3.88;0.50;;;11.80;99.90;;;;;;4991022;28;20105;-75
2021/05/23 01:09:08;;;;;;;2.33;0.60;;;11.80;99.90;;;;;;5010789;28;20114;-75
2021/05/23 01:11:33;;;;;;;1.02;0.57;;;11.70;99.90;;;;;;4990640;28;20078;-75
2021/05/23 01:13:59;;;;;;;2.25;0.80;;;11.70;99.90;;;;;;4991736;28;20070;-75
2021/05/23 01:16:43;;;;;;;2.17;0.52;;;11.80;99.90;;;;;;5021059;28;20165;-75
2021/05/23 01:19:32;;;;;;;1.10;0.70;;;11.60;99.90;;;;;;5012612;28;20562;-75
2021/05/23 01:22:11;;;;;;;1.58;0.68;;;11.70;99.90;;;;;;5015171;28;20161;-75
2021/05/23 01:24:51;;;;;;;0.95;0.70;;;11.80;99.90;;;;;;5006718;28;20140;-74
2021/05/23 01:27:26;;;;;;;1.75;0.52;;;11.70;99.90;;;;;;5012318;28;20101;-75
2021/05/23 01:29:52;;;;;;;1.10;0.50;;;11.50;99.90;;;;;;5010161;28;20078;-75
2021/05/23 01:32:18;;;;;;;0.90;0.80;;;11.40;99.90;;;;;;5011626;28;20077;-74
2021/05/23 01:34:44;;;;;;;1.50;0.60;;;11.40;99.90;;;;;;5006497;28;20094;-74
2021/05/23 01:37:14;;;;;;;1.90;0.63;;;11.40;99.90;;;;;;5015177;28;20325;-75
2021/05/23 01:39:40;;;;;;;3.78;0.80;;;11.30;99.90;;;;;;5014840;28;20101;-75
2021/05/23 01:42:08;;;;;;;1.02;0.60;;;11.40;99.90;;;;;;4995142;28;20515;-76
2021/05/23 01:44:33;;;;;;;1.17;0.65;;;11.30;99.90;;;;;;5011545;28;20156;-75
2021/05/23 01:46:59;;;;;;;1.77;0.80;;;11.30;99.90;;;;;;5010879;28;20148;-75
2021/05/23 01:49:25;;;;;;;2.15;0.70;;;11.20;99.90;;;;;;5020635;28;20089;-74
2021/05/23 01:51:50;;;;;;;1.23;0.65;;;11.30;99.90;;;;;;5012968;28;20082;-75
2021/05/23 01:54:16;;;;;;;3.33;0.80;;;11.30;99.90;;;;;;5012336;28;20082;-74
2021/05/23 01:56:42;;;;;;;2.40;0.80;;;11.30;99.90;;;;;;5011776;28;20094;-75
2021/05/23 01:59:07;;;;;;;1.25;0.80;;;11.40;99.90;;;;;;5029762;28;20553;-74
2021/05/23 02:01:33;;;;;;;1.13;0.52;;;11.30;99.90;;;;;;5012458;28;20101;-74
2021/05/23 02:04:00;;;;;;;0.80;0.50;;;11.30;99.90;;;;;;5011752;28;20073;-75
2021/05/23 02:06:26;;;;;;;1.10;0.50;;;11.30;99.90;;;;;;5007076;28;20101;-75
2021/05/23 02:08:52;;;;;;;2.70;0.90;;;11.20;99.90;;;;;;5017574;28;20113;-74
2021/05/23 02:11:18;;;;;;;1.20;0.52;;;11.10;99.90;;;;;;5011274;28;20556;-75
2021/05/23 02:13:44;;;;;;;2.17;0.73;;;11.00;99.90;;;;;;5011021;28;20565;-75
2021/05/23 02:16:10;;;;;;;1.60;0.80;;;11.00;99.90;;;;;;5009533;28;20074;-75
2021/05/23 02:18:36;;;;;;;3.30;0.60;;;11.00;99.90;;;;;;5014020;28;20097;-75
2021/05/23 02:21:04;;;;;;;0.85;0.60;;;11.10;99.90;;;;;;5011742;28;20152;-76
2021/05/23 02:23:31;;;;;;;2.13;0.75;;;11.00;99.90;;;;;;5011019;28;20070;-75
2021/05/23 02:25:56;;;;;;;0.65;0.65;;;11.00;99.90;;;;;;5009186;28;20106;-75
2021/05/23 02:28:22;;;;;;;2.70;0.70;;;10.80;99.90;;;;;;5022730;28;20178;-75
2021/05/23 02:30:52;;;;;;;0.70;0.43;;;10.90;99.90;;;;;;5013500;28;20160;-75
2021/05/23 02:33:19;;;;;;;1.15;0.75;;;11.00;99.90;;;;;;5010955;28;20080;-75
2021/05/23 02:35:48;;;;;;;1.80;0.57;;;10.80;99.90;;;;;;5009339;28;20576;-75
2021/05/23 02:38:16;;;;;;;1.88;0.80;;;10.90;99.90;;;;;;5011435;28;20090;-75
2021/05/23 02:40:43;;;;;;;1.55;0.50;;;10.80;99.90;;;;;;5008508;28;20148;-75
2021/05/23 02:43:11;;;;;;;1.45;0.43;;;10.70;99.90;;;;;;5010925;28;20937;-74
2021/05/23 02:45:37;;;;;;;1.10;0.50;;;10.80;99.90;;;;;;5010929;28;20605;-75
2021/05/23 02:48:05;;;;;;;1.15;0.52;;;10.80;99.90;;;;;;5010316;28;20112;-75
2021/05/23 02:50:35;;;;;;;1.00;0.40;;;10.80;99.90;;;;;;5012523;28;20075;-74
2021/05/23 02:53:00;;;;;;;2.72;0.82;;;10.70;99.90;;;;;;4993964;28;20109;-75
2021/05/23 02:55:26;;;;;;;1.25;0.50;;;10.80;99.90;;;;;;5008992;28;20070;-75
2021/05/23 02:57:52;;;;;;;3.63;0.50;;;10.70;99.90;;;;;;5015143;28;20174;-75
2021/05/23 03:00:21;;;;;;;0.80;0.30;;;10.70;99.90;;;;;;5050592;28;20164;-75
2021/05/23 03:02:47;;;;;;;1.17;0.50;;;10.80;99.90;;;;;;5013667;28;20161;-75
2021/05/23 03:05:15;;;;;;;1.05;0.30;;;10.70;99.90;;;;;;5008817;28;20082;-76
2021/05/23 03:07:44;;;;;;;1.50;0.45;;;10.80;99.90;;;;;;4996032;28;20228;-76
2021/05/23 03:10:15;;;;;;;0.55;0.40;;;10.90;99.90;;;;;;5030239;28;20538;-75
2021/05/23 03:12:42;;;;;;;1.05;0.60;;;10.90;99.90;;;;;;5030062;28;20082;-76
2021/05/23 03:15:11;;;;;;;2.17;0.40;;;10.90;99.90;;;;;;5012209;28;20082;-74
2021/05/23 03:17:37;;;;;;;1.77;0.68;;;11.00;99.90;;;;;;5029631;28;20548;-75
2021/05/23 03:20:05;;;;;;;0.88;0.52;;;11.00;99.90;;;;;;5030342;28;20609;-75
2021/05/23 03:22:30;;;;;;;0.68;0.30;;;11.00;99.90;;;;;;5029104;28;20144;-75
2021/05/23 03:24:56;;;;;;;0.82;0.45;;;11.00;99.90;;;;;;5007121;28;20082;-74
2021/05/23 03:27:22;;;;;;;1.38;0.50;;;10.90;99.90;;;;;;5013583;28;20571;-76
2021/05/23 03:29:47;;;;;;;2.03;0.80;;;10.90;99.90;;;;;;5011083;28;20093;-76
2021/05/23 03:32:13;;;;;;;2.80;0.63;;;10.90;99.90;;;;;;5008671;28;20083;-77
2021/05/23 03:34:39;;;;;;;1.15;0.50;;;10.90;99.90;;;;;;5010886;28;20088;-74
2021/05/23 03:37:04;;;;;;;1.42;0.40;;;11.00;99.90;;;;;;5008511;28;20082;-75
2021/05/23 03:39:30;;;;;;;0.77;0.50;;;11.00;99.90;;;;;;5016907;28;20124;-75
2021/05/23 03:41:55;;;;;;;1.98;0.52;;;11.00;99.90;;;;;;5011802;28;20162;-76
2021/05/23 03:44:21;;;;;;;1.65;0.43;;;10.90;99.90;;;;;;5008793;28;20078;-75
2021/05/23 03:46:47;;;;;;;0.70;0.50;;;11.00;99.90;;;;;;5001243;28;20572;-76
2021/05/23 03:49:12;;;;;;;0.60;0.30;;;11.00;99.90;;;;;;5020048;28;20087;-77
2021/05/23 03:51:38;;;;;;;1.55;0.60;;;10.90;99.90;;;;;;4992594;28;20104;-76
2021/05/23 03:54:04;;;;;;;1.58;0.65;;;10.90;99.90;;;;;;5010103;28;20085;-76
2021/05/23 03:56:29;;;;;;;1.33;0.60;;;10.80;99.90;;;;;;5010286;28;20077;-75
2021/05/23 03:58:55;;;;;;;0.75;0.38;;;10.80;99.90;;;;;;5007924;28;20098;-75
2021/05/23 04:01:21;;;;;;;4.22;0.60;;;10.80;99.90;;;;;;5010526;28;20079;-74
2021/05/23 04:03:47;;;;;;;3.35;0.80;;;10.60;99.90;;;;;;5010564;28;20088;-75
2021/05/23 04:06:13;;;;;;;2.22;0.70;;;10.50;99.90;;;;;;5007004;28;20714;-76
2021/05/23 04:08:38;;;;;;;1.23;0.60;;;10.50;99.90;;;;;;5020087;28;20113;-74
2021/05/23 04:11:16;;;;;;;3.90;0.55;;;10.30;99.90;;;;;;4991183;28;20121;-75
2021/05/23 04:13:42;;;;;;;0.88;0.50;;;10.30;99.90;;;;;;4991150;28;20078;-75
2021/05/23 04:16:11;;;;;;;2.95;0.60;;;10.20;99.90;;;;;;5006043;28;20089;-75
2021/05/23 04:18:37;;;;;;;2.80;0.60;;;10.20;99.90;;;;;;5010272;28;20656;-74
2021/05/23 04:21:03;;;;;;;2.83;1.02;;;10.10;99.90;;;;;;5009250;28;20074;-75
2021/05/23 04:23:29;;;;;;;1.80;0.70;;;10.00;99.90;;;;;;5009608;28;20083;-75
2021/05/23 04:25:55;;;;;;;0.57;0.55;;;10.20;99.90;;;;;;5008616;28;20122;-75
2021/05/23 04:28:21;;;;;;;0.60;0.32;;;10.10;99.90;;;;;;5020209;28;20101;-76
2021/05/23 04:30:46;;;;;;;2.45;0.70;;;10.20;99.90;;;;;;5020282;28;20079;-75
2021/05/23 04:33:12;;;;;;;3.13;0.40;;;10.20;99.90;;;;;;5009234;28;20161;-74
2021/05/23 04:35:39;;;;;;;1.92;1.05;;;10.30;99.90;;;;;;5000854;28;20074;-74
2021/05/23 04:38:07;;;;;;;0.70;0.35;;;10.30;99.90;;;;;;5013273;28;20110;-75
2021/05/23 04:40:33;;;;;;;3.92;0.60;;;10.30;99.90;;;;;;5029443;28;20074;-75
2021/05/23 04:43:00;;;;;;;1.55;0.80;;;10.20;99.90;;;;;;5029134;28;20085;-75
2021/05/23 04:45:25;;;;;;;3.22;0.40;;;10.20;99.90;;;;;;5023186;28;20078;-75
2021/05/23 04:47:51;;;;;;;1.92;0.65;;;10.10;99.90;;;;;;5009991;28;20109;-75
2021/05/23 04:50:17;;;;;;;1.10;0.60;;;10.20;99.90;;;;;;4991735;28;20086;-75
2021/05/23 04:52:43;;;;;;;4.32;0.82;;;10.20;99.90;;;;;;5008945;28;20082;-74
2021/05/23 04:55:09;;;;;;;2.13;0.70;;;10.10;99.90;;;;;;5011137;28;20073;-75
2021/05/23 04:57:36;;;;;;;0.80;0.40;;;10.10;99.90;;;;;;5007339;28;20086;-75
2021/05/23 05:00:11;;;;;;;1.20;0.40;;;9.90;99.90;;;;;;5004369;28;21004;-75
2021/05/23 05:02:37;;;;;;;1.80;0.52;;;9.90;99.90;;;;;;5008514;28;20089;-75
2021/05/23 05:05:04;;;;;;;1.25;0.52;;;10.00;99.90;;;;;;5008568;28;20078;-76
2021/05/23 05:07:31;;;;;;;0.65;0.40;;;10.00;99.90;;;;;;5007488;28;20106;-75
2021/05/23 05:09:57;;;;;;;1.13;0.70;;;9.80;99.90;;;;;;5007977;28;20066;-75
2021/05/23 05:12:23;;;;;;;1.55;0.50;;;9.70;99.90;;;;;;5006804;28;20081;-75
2021/05/23 05:14:48;;;;;;;0.68;0.30;;;9.80;99.90;;;;;;5013679;28;20069;-75
2021/05/23 05:17:14;;;;;;;1.83;0.50;;;9.90;99.90;;;;;;5008606;28;20121;-75
2021/05/23 05:19:40;;;;;;;1.80;0.40;;;9.80;99.90;;;;;;5011827;28;20126;-75
2021/05/23 05:22:06;;;;;;;0.70;0.40;;;9.80;99.90;;;;;;5010231;28;20549;-75
2021/05/23 05:24:32;;;;;;;0.73;0.30;;;9.70;99.90;;;;;;4990404;28;20166;-74
2021/05/23 05:26:57;;;;;;;0.32;0.20;;;9.70;99.90;;;;;;5008982;28;20137;-74
2021/05/23 05:29:23;;;;;;;0.65;0.40;;;9.60;99.90;;;;;;5019339;28;20288;-74
2021/05/23 05:31:49;;;;;;;1.02;0.28;;;9.40;99.90;;;;;;5010882;28;20542;-74
2021/05/23 05:34:14;;;;;;;1.55;0.38;;;9.50;99.90;;;;;;5008442;28;20442;-75
2021/05/23 05:36:40;;;;;;;0.55;0.20;;;9.60;99.90;;;;;;5023261;28;20140;-75
2021/05/23 05:39:06;;;;;;;2.45;0.50;;;9.60;99.90;;;;;;5023363;28;20117;-75
2021/05/23 05:41:32;;;;;;;1.02;0.20;;;9.60;99.90;;;;;;5002186;28;20089;-75
2021/05/23 05:43:58;;;;;;;1.02;0.20;;;9.50;99.90;;;;;;4993647;28;20089;-75
2021/05/23 05:46:23;;;;;;;2.55;0.63;;;9.40;99.90;;;;;;5007967;28;20082;-74
2021/05/23 05:48:49;;;;;;;0.30;0.20;;;9.50;99.90;;;;;;5015029;28;20133;-74
2021/05/23 05:51:14;;;;;;;0.52;0.20;;;9.70;99.90;;;;;;5017737;28;20070;-74
2021/05/23 05:53:41;;;;;;;0.98;0.22;;;9.70;99.90;;;;;;5006795;28;20133;-75
2021/05/23 05:56:07;;;;;;;1.00;0.77;;;9.70;99.90;;;;;;5008215;28;20070;-74
2021/05/23 05:58:32;;;;;;;1.67;0.40;;;9.60;99.90;;;;;;5012588;28;20109;-75
2021/05/23 06:00:58;;;;;;;0.70;0.30;;;9.60;99.90;;;;;;5014619;28;20072;-75
2021/05/23 06:03:24;;;;;;;0.30;0.20;;;9.60;99.90;;;;;;5012360;28;20506;-75
2021/05/23 06:05:49;;;;;;;1.25;0.40;;;9.70;99.90;;;;;;5011160;28;20075;-75
2021/05/23 06:08:15;;;;;;;0.30;0.20;;;9.60;99.90;;;;;;5019924;28;20129;-75
2021/05/23 06:10:40;;;;;;;1.45;0.43;;;9.70;99.90;;;;;;5022344;28;20697;-75
2021/05/23 06:13:06;;;;;;;0.50;0.30;;;9.40;99.90;;;;;;5017921;28;20076;-75
2021/05/23 06:15:35;;;;;;;0.28;0.20;;;9.40;99.90;;;;;;5018576;28;20132;-75
2021/05/23 06:18:00;;;;;;;1.05;0.20;;;9.40;99.90;;;;;;5015823;28;20130;-75
2021/05/23 06:20:26;;;;;;;0.90;0.22;;;9.60;99.90;;;;;;5013809;28;20630;-75
2021/05/23 06:22:52;;;;;;;0.52;0.20;;;9.50;99.90;;;;;;5020108;28;20581;-75
2021/05/23 06:25:17;;;;;;;1.27;0.30;;;9.40;99.90;;;;;;5013156;28;20106;-75
2021/05/23 06:27:43;;;;;;;0.65;0.30;;;9.40;99.90;;;;;;5007452;28;20104;-75
2021/05/23 06:30:10;;;;;;;0.90;0.38;;;9.50;99.90;;;;;;5010102;28;20162;-74
2021/05/23 06:32:36;;;;;;;0.30;0.30;;;9.60;99.90;;;;;;5018762;28;20073;-75
2021/05/23 06:35:03;;;;;;;0.50;0.30;;;9.50;99.90;;;;;;5018765;28;20799;-75
2021/05/23 06:37:28;;;;;;;1.55;0.55;;;9.30;99.90;;;;;;5019689;28;20078;-75
2021/05/23 06:39:54;;;;;;;1.35;0.90;;;9.30;99.90;;;;;;5023390;28;20505;-76
2021/05/23 06:42:20;;;;;;;0.95;0.43;;;9.20;99.90;;;;;;5012078;28;20117;-75
2021/05/23 06:44:45;;;;;;;1.00;0.60;;;9.20;99.90;;;;;;5008775;28;20168;-76
2021/05/23 06:47:11;;;;;;;1.88;0.55;;;9.40;99.90;;;;;;5010538;28;20098;-75
2021/05/23 06:49:37;;;;;;;0.40;0.30;;;9.30;99.90;;;;;;5011846;28;20105;-75
2021/05/23 06:52:03;;;;;;;0.65;0.40;;;9.30;99.90;;;;;;5008938;28;20184;-74
2021/05/23 06:54:29;;;;;;;0.77;0.50;;;9.40;99.90;;;;;;5010355;28;20531;-75
2021/05/23 06:56:55;;;;;;;0.70;0.38;;;9.30;99.90;;;;;;5010747;28;20140;-75
2021/05/23 06:59:20;;;;;;;0.30;0.25;;;9.30;99.90;;;;;;5031334;28;20173;-74
2021/05/23 07:01:46;;;;;;;1.15;0.50;;;9.40;99.90;;;;;;5017272;28;20140;-75
2021/05/23 07:04:12;;;;;;;1.67;0.63;;;9.40;99.90;;;;;;5009870;28;20078;-75
2021/05/23 07:06:37;;;;;;;0.88;0.50;;;9.30;99.90;;;;;;5017834;28;20101;-74
2021/05/23 07:09:03;;;;;;;2.83;1.90;;;9.40;99.90;;;;;;5016084;28;20521;-75
2021/05/23 07:11:29;;;;;;;0.50;0.35;;;9.30;99.90;;;;;;5011445;28;20070;-75
2021/05/23 07:13:55;;;;;;;0.60;0.55;;;9.00;99.90;;;;;;5010654;28;20085;-75
2021/05/23 07:16:21;;;;;;;1.75;0.30;;;9.20;99.90;;;;;;5025453;28;20085;-75
2021/05/23 07:18:47;;;;;;;0.80;0.50;;;9.20;99.90;;;;;;5022492;28;20097;-75
2021/05/23 07:21:12;;;;;;;1.40;0.50;;;9.10;99.90;;;;;;5009073;28;20100;-75
2021/05/23 07:23:38;;;;;;;0.80;0.60;;;9.20;99.90;;;;;;5018706;28;20162;-75
2021/05/23 07:26:04;;;;;;;1.55;1.20;;;9.20;99.90;;;;;;5008253;28;20077;-75
2021/05/23 07:28:30;;;;;;;2.10;0.50;;;9.20;99.90;;;;;;5014239;28;20102;-75
2021/05/23 07:30:55;;;;;;;0.65;0.40;;;9.40;99.90;;;;;;5014119;28;20116;-75
2021/05/23 07:33:21;;;;;;;1.75;0.28;;;9.40;99.90;;;;;;4992693;28;20074;-75
2021/05/23 07:35:46;;;;;;;1.05;0.38;;;9.30;99.90;;;;;;5003645;28;20081;-75
2021/05/23 07:38:12;;;;;;;1.45;1.25;;;9.40;99.90;;;;;;5010021;28;20117;-75
2021/05/23 07:40:38;;;;;;;0.22;0.20;;;9.30;99.90;;;;;;5009336;28;20078;-75
2021/05/23 07:43:04;;;;;;;0.20;0.10;;;9.10;99.90;;;;;;5010230;28;20098;-75
2021/05/23 07:45:30;;;;;;;0.30;0.30;;;9.10;99.90;;;;;;5009526;28;20161;-75
2021/05/23 07:47:56;;;;;;;0.30;0.17;;;9.20;99.90;;;;;;5014842;28;20105;-75
2021/05/23 07:50:23;;;;;;;0.20;0.10;;;9.30;99.90;;;;;;4998137;28;20086;-76
2021/05/23 07:52:48;;;;;;;1.38;0.20;;;9.20;99.90;;;;;;5023485;28;20157;-75
2021/05/23 07:55:14;;;;;;;1.23;0.40;;;9.20;99.90;;;;;;5014741;28;20229;-75
2021/05/23 07:57:40;;;;;;;0.60;0.40;;;9.30;99.90;;;;;;5009779;28;20446;-75
2021/05/23 08:00:07;;;;;;;1.15;0.40;;;9.30;99.90;;;;;;5029053;28;20086;-76
2021/05/23 08:02:33;;;;;;;0.30;0.20;;;9.30;99.90;;;;;;5013550;28;20132;-75
2021/05/23 08:04:59;;;;;;;2.05;0.45;;;9.40;99.90;;;;;;5029531;28;20497;-75
2021/05/23 08:07:24;;;;;;;0.35;0.20;;;9.40;99.90;;;;;;5024643;28;20461;-76
2021/05/23 08:09:50;;;;;;;0.77;0.30;;;9.50;99.90;;;;;;5024869;28;20976;-76
2021/05/23 08:12:18;;;;;;;1.13;0.55;;;9.50;99.90;;;;;;5023209;28;20102;-78
2021/05/23 08:14:44;;;;;;;0.63;0.40;;;9.50;99.90;;;;;;5008452;28;20077;-75
2021/05/23 08:17:10;;;;;;;0.55;0.30;;;9.50;99.90;;;;;;5009537;28;20085;-75
2021/05/23 08:19:35;;;;;;;1.15;0.30;;;9.40;99.90;;;;;;5009440;28;20514;-76
2021/05/23 08:22:01;;;;;;;1.40;1.30;;;9.40;99.90;;;;;;5010480;28;20288;-76
2021/05/23 08:24:30;;;;;;;1.52;0.47;;;9.40;99.90;;;;;;4993128;28;20082;-75
2021/05/23 08:26:55;;;;;;;0.80;0.20;;;9.40;99.90;;;;;;5017906;28;20155;-75
2021/05/23 08:29:21;;;;;;;0.35;0.35;;;9.50;99.90;;;;;;5027370;28;20097;-75
2021/05/23 08:31:47;;;;;;;1.27;0.30;;;9.40;99.90;;;;;;5016037;28;20434;-75
2021/05/23 08:34:12;;;;;;;0.98;0.38;;;9.30;99.90;;;;;;5019134;28;20543;-75
2021/05/23 08:36:38;;;;;;;0.63;0.40;;;9.40;99.90;;;;;;5008741;28;20071;-75
2021/05/23 08:39:04;;;;;;;2.78;0.20;;;9.50;99.90;;;;;;5022632;28;20089;-75
2021/05/23 08:41:30;;;;;;;0.30;0.20;;;9.60;99.90;;;;;;5021148;28;20530;-79
2021/05/23 08:43:55;;;;;;;1.95;0.80;;;9.70;99.90;;;;;;5013729;28;20577;-76
2021/05/23 08:46:21;;;;;;;1.40;0.43;;;9.80;99.90;;;;;;5013937;28;20113;-79
2021/05/23 08:48:47;;;;;;;0.40;0.17;;;9.90;99.90;;;;;;5021056;28;20094;-79
2021/05/23 08:51:13;;;;;;;1.20;0.60;;;9.80;99.90;;;;;;5014800;28;20069;-79
2021/05/23 08:53:39;;;;;;;1.23;0.60;;;9.90;99.90;;;;;;5013473;28;20074;-80
2021/05/23 08:56:05;;;;;;;1.00;0.50;;;10.00;99.90;;;;;;5008008;28;20442;-80
2021/05/23 08:58:31;;;;;;;0.47;0.30;;;10.10;99.90;;;;;;5007706;28;20093;-79
2021/05/23 09:00:56;;;;;;;0.32;0.30;;;10.00;99.90;;;;;;5014197;28;20088;-79
2021/05/23 09:03:22;;;;;;;0.93;0.40;;;10.00;99.90;;;;;;5006697;28;20500;-75
2021/05/23 09:05:49;;;;;;;0.40;0.22;;;10.20;99.90;;;;;;5005935;28;20082;-75
2021/05/23 09:08:21;;;;;;;0.65;0.57;;;10.00;99.90;;;;;;5017708;28;20089;-75
2021/05/23 09:10:49;;;;;;;0.68;0.50;;;9.90;99.90;;;;;;5018996;28;20098;-74
2021/05/23 09:13:29;;;;;;;0.88;0.50;;;10.00;99.90;;;;;;5019873;28;20070;-76
2021/05/23 09:16:06;;;;;;;1.65;0.50;;;10.10;99.90;;;;;;5010326;28;20074;-74
2021/05/23 09:18:47;;;;;;;3.63;0.90;;;10.30;99.90;;;;;;5019405;28;20184;-78
2021/05/23 09:21:19;;;;;;;2.17;1.10;;;10.40;99.90;;;;;;5029656;28;20078;-76
2021/05/23 09:23:49;;;;;;;0.98;0.40;;;10.40;99.90;;;;;;5026594;28;20461;-76
2021/05/23 09:26:22;;;;;;;1.20;0.30;;;10.40;99.90;;;;;;5024382;28;20557;-76
2021/05/23 09:28:49;;;;;;;1.35;0.40;;;10.30;99.90;;;;;;5022477;28;20140;-75
2021/05/23 09:31:21;;;;;;;0.68;0.30;;;10.30;99.90;;;;;;5024370;28;20169;-80
2021/05/23 09:33:50;;;;;;;1.42;0.70;;;10.40;99.90;;;;;;5026102;28;20070;-76
2021/05/23 09:36:18;;;;;;;1.17;0.50;;;10.40;99.90;;;;;;5020688;28;20071;-76
2021/05/23 09:38:58;;;;;;;3.22;1.10;;;10.30;99.90;;;;;;5009286;28;20097;-76
2021/05/23 09:41:32;;;;;;;0.77;0.30;;;10.30;99.90;;;;;;5017107;28;20077;-76
2021/05/23 09:44:13;;;;;;;0.60;0.37;;;10.40;99.90;;;;;;5020025;28;20593;-77
2021/05/23 09:47:02;;;;;;;0.80;0.30;;;10.60;99.90;;;;;;5013454;28;20090;-76
2021/05/23 09:49:29;;;;;;;0.85;0.40;;;10.70;99.90;;;;;;5019543;28;20097;-76
2021/05/23 09:52:07;;;;;;;2.10;1.15;;;10.50;99.90;;;;;;5015507;28;20441;-76
2021/05/23 09:54:46;;;;;;;0.30;0.28;;;10.60;99.90;;;;;;5020779;28;20142;-77
2021/05/23 09:57:19;;;;;;;0.60;0.20;;;10.70;99.90;;;;;;5020101;28;20105;-76
2021/05/23 09:59:46;;;;;;;0.90;0.40;;;10.60;99.90;;;;;;5030402;28;20102;-76
2021/05/23 10:02:13;;;;;;;3.05;0.47;;;10.70;99.90;;;;;;5022001;28;21223;-76
2021/05/23 10:04:40;;;;;;;2.10;0.70;;;10.70;99.90;;;;;;5023479;28;20084;-76
2021/05/23 10:07:07;;;;;;;2.47;0.30;;;11.00;99.90;;;;;;5020109;28;20086;-77
2021/05/23 10:09:33;;;;;;;1.65;0.40;;;11.00;99.90;;;;;;5020875;28;20118;-76
2021/05/23 10:11:59;;;;;;;0.82;0.40;;;11.00;99.90;;;;;;5013807;28;20165;-78
2021/05/23 10:14:26;;;;;;;0.68;0.25;;;11.10;99.90;;;;;;5012831;28;20070;-76
2021/05/23 10:16:53;;;;;;;0.35;0.22;;;11.20;99.90;;;;;;5011730;28;20072;-76
2021/05/23 10:19:24;;;;;;;0.93;0.57;;;11.20;99.90;;;;;;5025375;28;20094;-76
2021/05/23 10:21:56;;;;;;;2.00;0.52;;;10.80;99.90;;;;;;5016855;28;20082;-76
2021/05/23 10:24:33;;;;;;;0.63;0.30;;;10.80;99.90;;;;;;5028563;28;20112;-76
2021/05/23 10:27:05;;;;;;;2.30;0.50;;;10.70;99.90;;;;;;5008506;28;20196;-77
2021/05/23 10:29:37;;;;;;;2.03;0.15;;;10.80;99.90;;;;;;5012251;28;20096;-76
2021/05/23 10:32:09;;;;;;;0.30;0.20;;;10.50;99.90;;;;;;5013130;28;20083;-77
2021/05/23 10:34:43;;;;;;;0.47;0.20;;;10.40;99.90;;;;;;5011246;28;20070;-77
2021/05/23 10:37:13;;;;;;;1.35;0.38;;;10.40;99.90;;;;;;5011457;28;20113;-77
2021/05/23 10:39:49;;;;;;;0.63;0.38;;;10.40;99.90;;;;;;5028531;28;20112;-76
2021/05/23 10:42:15;;;;;;;1.05;0.40;;;10.40;99.90;;;;;;5024880;28;20070;-77
2021/05/23 10:44:41;;;;;;;0.63;0.30;;;10.40;99.90;;;;;;5012691;28;20501;-77
2021/05/23 10:47:16;;;;;;;1.27;0.50;;;10.50;99.90;;;;;;5027130;28;20169;-77
2021/05/23 10:49:52;;;;;;;4.65;1.60;;;10.80;99.90;;;;;;5017022;28;20109;-77
2021/05/23 10:52:17;;;;;;;2.08;1.23;;;11.00;99.90;;;;;;5001244;28;20497;-77
2021/05/23 10:55:15;;;;;;;1.92;1.60;;;10.80;99.90;;;;;;5018594;28;20128;-76
2021/05/23 10:57:54;;;;;;;0.88;0.40;;;10.90;99.90;;;;;;5012209;28;20684;-77
2021/05/23 11:00:20;;;;;;;0.30;0.20;;;10.90;99.90;;;;;;5010680;28;20180;-77
2021/05/23 11:02:47;;;;;;;1.48;0.20;;;11.20;99.90;;;;;;5015435;28;20168;-77
2021/05/23 11:05:16;;;;;;;2.17;0.52;;;11.30;99.90;;;;;;5030275;28;20164;-77
2021/05/23 11:08:03;;;;;;;3.22;0.20;;;11.50;99.90;;;;;;5019649;28;20109;-77
2021/05/23 11:10:40;;;;;;;0.47;0.30;;;11.90;99.90;;;;;;5014887;28;20665;-77
2021/05/23 11:13:06;;;;;;;2.17;0.70;;;12.00;99.90;;;;;;5026323;28;20089;-77
2021/05/23 11:15:43;;;;;;;0.40;0.20;;;12.10;99.90;;;;;;5018136;28;20074;-77
2021/05/23 11:18:09;;;;;;;0.28;0.17;;;12.30;99.90;;;;;;5017013;28;20195;-76
2021/05/23 11:20:35;;;;;;;0.20;0.10;;;12.40;99.90;;;;;;5017049;28;20085;-76
2021/05/23 11:23:07;;;;;;;0.57;0.20;;;12.60;99.90;;;;;;5014381;28;20505;-77
2021/05/23 11:25:33;;;;;;;0.80;0.28;;;12.80;99.90;;;;;;5012300;28;20097;-76
2021/05/23 11:28:05;;;;;;;1.35;0.30;;;12.40;99.90;;;;;;5014912;28;20098;-76
2021/05/23 11:30:39;;;;;;;0.73;0.30;;;12.70;99.90;;;;;;5020815;28;20067;-79
2021/05/23 11:33:10;;;;;;;0.85;0.40;;;12.80;99.90;;;;;;5023015;28;20078;-77
2021/05/23 11:35:38;;;;;;;0.55;0.17;;;13.00;99.90;;;;;;5010177;28;20120;-76
2021/05/23 11:38:05;;;;;;;0.77;0.25;;;12.80;99.90;;;;;;5016714;28;20092;-76
2021/05/23 11:40:41;;;;;;;0.95;0.30;;;13.10;99.90;;;;;;5023271;28;20086;-77
2021/05/23 11:43:18;;;;;;;6.07;2.67;;;13.10;99.90;;;;;;5011799;28;20066;-77
2021/05/23 11:46:05;;;;;;;7.78;3.58;;;13.30;99.90;;;;;;4995770;28;20096;-77
2021/05/23 11:48:37;;;;;;;2.15;0.90;;;13.30;99.90;;;;;;5020550;28;20098;-77
2021/05/23 11:51:05;;;;;;;1.85;0.52;;;13.50;99.90;;;;;;5027243;28;20073;-77
2021/05/23 11:53:45;;;;;;;0.60;0.20;;;13.60;99.90;;;;;;5082126;22;20187;-87
2021/05/23 11:56:16;;;;;;;0.60;0.55;;;13.60;99.90;;;;;;5033748;28;20062;-88
2021/05/23 11:58:45;;;;;;;1.27;0.20;;;13.70;99.90;;;;;;5034230;28;20077;-88
2021/05/23 12:01:27;;;;;;;1.05;0.68;;;13.80;99.90;;;;;;5034506;28;20082;-88
2021/05/23 12:04:05;;;;;;;0.90;0.40;;;13.60;99.90;;;;;;5037082;28;20105;-88
2021/05/23 12:06:33;;;;;;;1.42;0.32;;;13.70;99.90;;;;;;5037994;28;20086;-87
2021/05/23 12:09:06;;;;;;;1.73;0.22;;;13.40;99.90;;;;;;5036999;28;20070;-88
2021/05/23 12:11:50;;;;;;;1.67;0.38;;;13.30;99.90;;;;;;5037739;28;20094;-88
2021/05/23 12:14:22;;;;;;;1.33;0.38;;;13.50;99.90;;;;;;5023352;28;20401;-88
2021/05/23 12:17:05;;;;;;;1.67;1.33;;;13.60;99.90;;;;;;5036387;28;20084;-88
2021/05/23 12:19:47;;;;;;;1.83;0.85;;;13.80;99.90;;;;;;5031463;28;20078;-88
2021/05/23 12:22:27;;;;;;;0.90;0.75;;;13.70;99.90;;;;;;5037518;28;20168;-88
2021/05/23 12:25:03;;;;;;;2.65;1.42;;;13.90;99.90;;;;;;5033440;28;20070;-87
2021/05/23 12:27:53;;;;;;;1.38;0.20;;;14.10;99.90;;;;;;5033108;28;20135;-88
2021/05/23 12:30:22;;;;;;;1.33;0.50;;;14.10;99.90;;;;;;5008622;28;20100;-88
2021/05/23 12:33:03;;;;;;;2.65;0.52;;;14.10;99.90;;;;;;5024439;28;20100;-88
2021/05/23 12:35:35;;;;;;;1.48;0.40;;;13.90;99.90;;;;;;5032672;28;20543;-88
2021/05/23 12:38:09;;;;;;;2.47;2.20;;;14.10;99.90;;;;;;5038540;28;20078;-87
2021/05/23 12:40:43;;;;;;;3.85;2.35;;;14.10;99.90;;;;;;5109834;22;20104;-73
2021/05/23 12:43:13;;;;;;;7.18;4.38;;;14.10;99.90;;;;;;5045640;28;20429;-73
2021/05/23 12:45:57;;;;;;;0.50;0.30;;;14.20;99.90;;;;;;5045363;28;20111;-74
2021/05/23 12:48:36;;;;;;;1.55;0.30;;;14.30;99.90;;;;;;5029587;28;20124;-74
2021/05/23 12:51:17;;;;;;;2.53;1.30;;;14.00;99.90;;;;;;5044101;28;20127;-74
2021/05/23 12:53:51;;;;;;;3.45;1.63;;;14.20;99.90;;;;;;5045548;28;20092;-74
2021/05/23 12:56:21;;;;;;;3.13;1.20;;;14.40;99.90;;;;;;5017224;28;20088;-74